• Join FlightAware (Why Join?)
  • Login
  • US Flag 
02:06AM EDT


 

Airport Tracker/Info


-or-


 

Live Flight TrackerFlight Track Log ✈ N99AZ ✈ 23-Apr-2013 ✈ KCCR - KHWD

Flight Track Log - Related Links

Times and Time Zones

All times are in EDT time to prevent confusion due to time zone crossing. See the N99AZ flight status page for this flight to view local times or setup timezone preferences in your user account.

Time Position Orientation Groundspeed Altitude Reporting Facility
EDT Latitude Longitude Course Direction KTS MPH feet Rate Location/Type
04:16PM 38.0372 -122.0753 169° South 96 110 1,800  Level Oakland Center
04:17PM 38.0239 -122.1042 240° Southwest 95 109 2,500 540 Climbing Oakland Center
04:18PM 38.0128 -122.1339 245° Southwest 92 106 3,000 540 Climbing Oakland Center
04:19PM 38.0025 -122.1653 247° West 96 110 3,700 420 Climbing Oakland Center
04:20PM 37.9835 -122.1831 218° Southwest  Level FlightAware Approximate
04:20PM 37.9831 -122.1867 221° Southwest 109 125 3,900  Level Oakland Center
04:21PM 37.9661 -122.1957 169° South  Level FlightAware Approximate
04:21PM 37.9503 -122.1653 153° Southeast 133 153 4,000  Level Oakland Center
04:22PM 37.9128 -122.1425 154° Southeast 144 166 4,000  Level Oakland Center
04:23PM 37.8775 -122.1197 153° Southeast 142 163 4,000  Level Oakland Center
04:24PM 37.8353 -122.0928 153° Southeast 141 162 4,000  Level Oakland Center
04:25PM 37.8014 -122.0714 153° Southeast 138 159 4,000  Level Oakland Center
04:27PM 37.7394 -122.0139 144° Southeast 137 158 4,000  Level Oakland Center
04:28PM 37.7081 -121.9850 144° Southeast 138 159 4,000  Level Oakland Center
04:29PM 37.6781 -121.9561 143° Southeast 137 158 4,000  Level Oakland Center
04:30PM 37.6519 -121.9208 133° Southeast 136 157 4,000  Level Oakland Center
04:31PM 37.6236 -121.8969 146° Southeast 142 163 4,000  Level Oakland Center
04:31PM 37.6000 -121.9000 186° South 132 152 4,000  Level Northern Cal TRACON
04:32PM 37.5833 -121.9167 218° Southwest 126 145 4,000 -120 Level Northern Cal TRACON
04:33PM 37.5667 -121.9500 238° Southwest 120 138 3,800 -540 Descending Northern Cal TRACON
04:34PM 37.6000 -122.0000 310° West 130 150 3,000 -900 Descending Northern Cal TRACON
04:35PM 37.6167 -122.0333 302° West 133 153 2,000 -900 Descending Northern Cal TRACON
04:36PM 37.6261 -122.0586 295° West 131 151 1,500 -780 Descending Oakland Center
04:37PM 37.6419 -122.0878 304° West 117 135 700 -660 Descending Oakland Center
04:38PM 37.6514 -122.1067 302° West 84 97 200 -540 Descending Oakland Center